createdAt,value
2019-01-25T00:04:44.622Z,94919.92
2019-01-25T00:07:28.326Z,94915.55
2019-01-25T00:10:21.440Z,94921.74
2019-01-25T00:15:41.630Z,94914.63
2019-01-25T00:18:17.912Z,94919.50
2019-01-25T00:24:28.381Z,94913.06
2019-01-25T00:26:59.437Z,94920.02
2019-01-25T00:29:28.494Z,94920.43
2019-01-25T00:31:57.551Z,94922.50
2019-01-25T00:34:26.622Z,94914.20
2019-01-25T00:36:56.636Z,94918.94
2019-01-25T00:39:29.745Z,94926.42
2019-01-25T00:42:03.645Z,94924.23
2019-01-25T00:44:32.717Z,94931.70
2019-01-25T00:47:01.834Z,94929.66
2019-01-25T00:49:30.856Z,94931.23
2019-01-25T00:52:09.819Z,94941.64
2019-01-25T00:54:38.897Z,94938.39
2019-01-25T00:57:07.955Z,94942.97
2019-01-25T00:59:37.023Z,94944.24
2019-01-25T01:02:06.087Z,94947.83
2019-01-25T01:04:35.194Z,94946.95
2019-01-25T01:07:06.296Z,94950.60
2019-01-25T01:09:35.739Z,94948.34
2019-01-25T01:15:03.798Z,94950.03
2019-01-25T01:17:32.872Z,94952.76
2019-01-25T01:20:01.979Z,94962.27
2019-01-25T01:22:31.045Z,94960.55
2019-01-25T01:25:00.218Z,94962.81
2019-01-25T01:27:29.244Z,94969.16
2019-01-25T01:32:45.985Z,94970.26
2019-01-25T01:35:28.171Z,94967.09
2019-01-25T01:37:57.244Z,94968.27
2019-01-25T01:40:28.211Z,94972.78
2019-01-25T01:42:57.287Z,94970.16
2019-01-25T01:45:41.382Z,94976.09
2019-01-25T01:48:10.454Z,94973.40
2019-01-25T01:50:39.505Z,94967.02
2019-01-25T01:53:09.494Z,94965.52
2019-01-25T01:55:41.915Z,94973.36
2019-01-25T01:58:25.690Z,94969.63
2019-01-25T02:00:54.801Z,94968.75
2019-01-25T02:03:27.418Z,94968.98
2019-01-25T02:05:56.485Z,94973.75
2019-01-25T02:08:25.937Z,94969.45
2019-01-25T02:10:57.925Z,94973.06
2019-01-25T02:13:51.724Z,94977.69
2019-01-25T02:18:57.251Z,94976.31
2019-01-25T02:21:28.240Z,94981.16
2019-01-25T02:23:57.363Z,94976.09
2019-01-25T02:26:28.419Z,94979.74
2019-01-25T02:28:58.403Z,94976.66
2019-01-25T02:34:06.819Z,94980.04
2019-01-25T02:36:35.887Z,94979.95
2019-01-25T02:39:04.952Z,94983.34
2019-01-25T02:41:34.005Z,94979.78
2019-01-25T02:44:03.065Z,94983.30
2019-01-25T02:46:35.487Z,94985.82
2019-01-25T02:49:04.544Z,94982.74
2019-01-25T02:51:46.303Z,94983.97
2019-01-25T02:54:28.799Z,94983.14
2019-01-25T02:56:58.081Z,94987.52
2019-01-25T03:02:06.838Z,94988.38
2019-01-25T03:04:39.519Z,94989.80
2019-01-25T03:07:08.581Z,94992.65
2019-01-25T03:09:40.896Z,94998.02
2019-01-25T03:14:19.688Z,95002.50
2019-01-25T03:16:48.784Z,95004.09
2019-01-25T03:19:18.775Z,95005.75
2019-01-25T03:21:47.831Z,95006.17
2019-01-25T03:24:20.671Z,95007.36
2019-01-25T03:26:49.725Z,95013.70
2019-01-25T03:29:24.211Z,95013.79
2019-01-25T03:31:53.331Z,95023.15
2019-01-25T03:37:09.434Z,95018.41
2019-01-25T03:39:39.391Z,95019.59
2019-01-25T03:42:08.516Z,95021.14
2019-01-25T03:44:42.908Z,95020.95
2019-01-25T03:47:11.979Z,95023.33
2019-01-25T03:49:42.997Z,95027.20
2019-01-25T03:52:15.823Z,95026.17
2019-01-25T03:54:44.876Z,95025.95
2019-01-25T03:59:50.395Z,95027.58
2019-01-25T04:02:21.492Z,95032.52
2019-01-25T04:04:50.559Z,95037.22
2019-01-25T04:07:19.616Z,95039.56
2019-01-25T04:09:49.044Z,95033.91
2019-01-25T04:12:19.114Z,95033.66
2019-01-25T04:14:48.211Z,95036.09
2019-01-25T04:17:17.301Z,95034.70
2019-01-25T04:19:46.364Z,95036.64
2019-01-25T04:22:18.497Z,95039.36
2019-01-25T04:24:47.556Z,95039.48
2019-01-25T04:27:20.994Z,95035.30
2019-01-25T04:29:51.684Z,95037.42
2019-01-25T04:32:39.096Z,95036.24
2019-01-25T04:35:08.315Z,95040.25
2019-01-25T04:37:37.391Z,95039.41
2019-01-25T04:40:08.154Z,95039.21
2019-01-25T04:42:37.220Z,95033.11
2019-01-25T04:45:06.268Z,95031.63
2019-01-25T04:47:35.348Z,95032.17
2019-01-25T04:50:05.378Z,95033.02
2019-01-25T04:52:34.805Z,95029.73
2019-01-25T04:55:18.275Z,95034.66
2019-01-25T04:57:49.325Z,95027.80
2019-01-25T05:00:18.346Z,95038.22
2019-01-25T05:02:52.413Z,95041.95
2019-01-25T05:05:21.493Z,95047.88
2019-01-25T05:07:50.580Z,95041.07
2019-01-25T05:10:19.654Z,95043.38
2019-01-25T05:12:56.616Z,95043.98
2019-01-25T05:15:53.008Z,95047.92
2019-01-25T05:18:22.912Z,95048.92
2019-01-25T05:20:55.181Z,95047.44
2019-01-25T05:23:24.246Z,95046.08
2019-01-25T05:28:32.288Z,95051.32
2019-01-25T05:31:01.364Z,95046.81
2019-01-25T05:33:30.411Z,95050.67
2019-01-25T05:36:06.849Z,95051.24
2019-01-25T05:41:13.059Z,95053.12
2019-01-25T05:43:52.890Z,95056.42
2019-01-25T05:46:21.959Z,95059.69
2019-01-25T05:48:52.947Z,95059.06
2019-01-25T05:51:22.037Z,95060.80
2019-01-25T05:53:55.987Z,95066.73
2019-01-25T05:57:02.816Z,95066.64
2019-01-25T06:02:10.538Z,95068.95
2019-01-25T06:07:18.250Z,95072.45
2019-01-25T06:12:26.917Z,95083.44
2019-01-25T06:14:56.113Z,95081.91
2019-01-25T06:17:26.180Z,95083.82
2019-01-25T06:19:57.245Z,95088.03
2019-01-25T06:22:27.239Z,95083.47
2019-01-25T06:24:57.975Z,95086.08
2019-01-25T06:27:27.041Z,95090.01
2019-01-25T06:32:35.261Z,95091.89
2019-01-25T06:35:04.344Z,95092.20
2019-01-25T06:37:34.388Z,95095.66
2019-01-25T06:40:18.993Z,95095.88
2019-01-25T06:42:53.521Z,95102.95
2019-01-25T06:47:59.820Z,95101.41
2019-01-25T06:50:28.886Z,95105.67
2019-01-25T06:52:57.954Z,95105.47
2019-01-25T06:55:27.007Z,95104.59
2019-01-25T07:00:34.613Z,95105.22
2019-01-25T07:03:18.151Z,95105.84
2019-01-25T07:06:12.385Z,95114.98
2019-01-25T07:08:41.432Z,95115.44
2019-01-25T07:14:05.103Z,95113.13
2019-01-25T07:19:50.859Z,95117.48
2019-01-25T07:22:27.235Z,95117.08
2019-01-25T07:24:57.302Z,95114.05
2019-01-25T07:30:05.165Z,95116.52
2019-01-25T07:35:15.158Z,95125.84
2019-01-25T07:37:45.174Z,95127.70
2019-01-25T07:40:16.218Z,95133.35
2019-01-25T07:42:49.853Z,95133.43
2019-01-25T07:45:20.883Z,95140.39
2019-01-25T07:47:49.969Z,95144.07
2019-01-25T07:50:19.108Z,95146.21
2019-01-25T07:52:48.191Z,95143.88
2019-01-25T07:55:28.230Z,95142.81
2019-01-25T07:58:01.971Z,95147.45
2019-01-25T08:00:31.003Z,95148.08
2019-01-25T08:03:00.072Z,95145.75
2019-01-25T08:05:29.166Z,95151.30
2019-01-25T08:07:58.218Z,95164.92
2019-01-25T08:10:27.293Z,95162.39
2019-01-25T08:12:56.409Z,95160.31
2019-01-25T08:15:25.459Z,95162.48
2019-01-25T08:17:56.486Z,95168.70
2019-01-25T08:20:25.534Z,95172.89
2019-01-25T08:23:13.729Z,95180.62
2019-01-25T08:25:45.162Z,95179.70
2019-01-25T08:28:16.220Z,95186.05
2019-01-25T08:30:55.274Z,95191.60
2019-01-25T08:33:24.414Z,95190.84
2019-01-25T08:35:58.979Z,95184.06
2019-01-25T08:38:33.436Z,95188.39
2019-01-25T08:43:55.948Z,95189.31
2019-01-25T08:46:30.545Z,95180.40
2019-01-25T08:51:48.077Z,95193.28
2019-01-25T08:54:22.629Z,95191.59
2019-01-25T08:56:57.212Z,95189.44
2019-01-25T08:59:31.729Z,95188.34
2019-01-25T09:02:20.544Z,95186.84
2019-01-25T09:05:09.640Z,95191.71
2019-01-25T09:07:54.488Z,95191.98
2019-01-25T09:10:28.954Z,95198.17
2019-01-25T09:13:03.532Z,95194.76
2019-01-25T09:15:38.201Z,95202.81
2019-01-25T09:18:26.863Z,95208.55
2019-01-25T09:21:02.056Z,95208.38
2019-01-25T09:23:37.127Z,95209.66
2019-01-25T09:28:47.467Z,95206.23
2019-01-25T09:31:17.431Z,95216.11
2019-01-25T09:33:47.028Z,95219.06
2019-01-25T09:36:16.126Z,95214.16
2019-01-25T09:38:45.376Z,95221.36
2019-01-25T09:43:50.987Z,95231.61
2019-01-25T09:46:21.520Z,95225.88
2019-01-25T09:48:50.616Z,95229.28
2019-01-25T09:51:20.908Z,95222.87
2019-01-25T09:53:50.393Z,95228.05
2019-01-25T09:56:21.399Z,95232.91
2019-01-25T09:59:00.981Z,95233.28
2019-01-25T10:01:37.238Z,95230.82
2019-01-25T10:06:49.376Z,95233.53
2019-01-25T10:09:20.983Z,95236.39
2019-01-25T10:11:50.186Z,95242.92
2019-01-25T10:14:21.794Z,95239.77
2019-01-25T10:16:51.617Z,95246.98
2019-01-25T10:19:36.795Z,95245.17
2019-01-25T10:24:44.264Z,95249.68
2019-01-25T10:27:14.227Z,95250.07
2019-01-25T10:29:43.571Z,95245.29
2019-01-25T10:34:48.359Z,95249.64
2019-01-25T10:39:57.182Z,95248.76
2019-01-25T10:42:29.322Z,95244.96
2019-01-25T10:44:58.683Z,95247.53
2019-01-25T10:47:28.201Z,95246.41
2019-01-25T10:49:57.291Z,95250.17
2019-01-25T10:52:27.667Z,95249.56
2019-01-25T10:54:56.852Z,95244.50
2019-01-25T10:57:30.843Z,95241.96
2019-01-25T10:59:59.902Z,95242.41
2019-01-25T11:02:36.866Z,95238.16
2019-01-25T11:05:11.379Z,95240.71
2019-01-25T11:07:40.499Z,95232.47
2019-01-25T11:10:25.660Z,95226.89
2019-01-25T11:13:00.782Z,95227.52
2019-01-25T11:15:24.536Z,95227.16
2019-01-25T11:23:15.411Z,95226.91
2019-01-25T11:25:47.479Z,95224.91
2019-01-25T11:28:16.756Z,95235.01
2019-01-25T11:30:53.626Z,95228.39
2019-01-25T11:33:22.735Z,95225.47
2019-01-25T11:35:51.797Z,95224.43
2019-01-25T11:38:21.193Z,95228.22
2019-01-25T11:43:26.880Z,95237.78
2019-01-25T11:45:56.663Z,95231.26
2019-01-25T11:48:25.717Z,95238.14
2019-01-25T11:50:55.197Z,95242.01
2019-01-25T11:53:24.620Z,95233.59
2019-01-25T11:55:53.667Z,95229.70
2019-01-25T11:58:22.732Z,95234.95
2019-01-25T12:00:53.985Z,95229.59
2019-01-25T12:03:23.521Z,95223.38
2019-01-25T12:05:54.727Z,95226.05
2019-01-25T12:08:24.122Z,95224.25
2019-01-25T12:10:56.902Z,95225.14
2019-01-25T12:13:31.694Z,95229.09
2019-01-25T12:16:19.826Z,95225.03
2019-01-25T12:18:49.351Z,95224.94
2019-01-25T12:21:20.960Z,95218.80
2019-01-25T12:23:50.012Z,95208.02
2019-01-25T12:26:20.203Z,95208.61
2019-01-25T12:28:54.284Z,95204.69
2019-01-25T12:33:59.595Z,95203.88
2019-01-25T12:36:29.264Z,95208.85
2019-01-25T12:39:04.049Z,95206.14
2019-01-25T12:44:19.477Z,95198.08
2019-01-25T12:46:57.086Z,95209.77
2019-01-25T12:49:32.041Z,95206.59
2019-01-25T12:52:13.091Z,95201.24
2019-01-25T12:54:43.993Z,95204.55
2019-01-25T12:57:14.209Z,95212.09
2019-01-25T12:59:52.500Z,95213.27
2019-01-25T13:02:26.159Z,95218.62
2019-01-25T13:04:56.512Z,95221.15
2019-01-25T13:07:26.572Z,95214.98
2019-01-25T13:10:07.160Z,95224.42
2019-01-25T13:12:47.495Z,95216.16
2019-01-25T13:18:12.086Z,95211.46
2019-01-25T13:20:43.571Z,95221.28
2019-01-25T13:23:12.694Z,95220.47
2019-01-25T13:25:49.114Z,95215.80
2019-01-25T13:28:21.405Z,95221.28
2019-01-25T13:30:51.030Z,95232.40
2019-01-25T13:33:20.689Z,95233.03
2019-01-25T13:35:59.139Z,95235.81
2019-01-25T13:38:28.399Z,95237.30
2019-01-25T13:41:00.394Z,95228.77
2019-01-25T13:43:29.482Z,95230.00
2019-01-25T13:46:00.457Z,95228.97
2019-01-25T13:48:29.815Z,95227.92
2019-01-25T13:51:00.859Z,95228.66
2019-01-25T13:53:30.511Z,95231.08
2019-01-25T13:56:00.871Z,95238.17
2019-01-25T13:58:30.040Z,95240.44
2019-01-25T14:01:04.113Z,95238.11
2019-01-25T14:03:33.458Z,95232.89
2019-01-25T14:06:03.113Z,95237.37
2019-01-25T14:08:41.326Z,95239.59
2019-01-25T14:11:20.995Z,95244.03
2019-01-25T14:14:15.184Z,95241.44
2019-01-25T14:16:45.424Z,95239.32
2019-01-25T14:19:14.492Z,95249.28
2019-01-25T14:21:44.244Z,95240.24
2019-01-25T14:24:16.614Z,95249.67
2019-01-25T14:26:42.978Z,95259.23
2019-01-25T14:29:12.347Z,95252.75
2019-01-25T14:31:42.422Z,95256.02
2019-01-25T14:34:11.480Z,95260.16
2019-01-25T14:36:40.974Z,95265.73
2019-01-25T14:39:10.565Z,95265.72
2019-01-25T14:41:40.663Z,95271.39
2019-01-25T14:44:11.021Z,95273.45
2019-01-25T14:46:40.554Z,95287.31
2019-01-25T14:49:10.578Z,95281.91
2019-01-25T14:51:39.805Z,95285.42
2019-01-25T14:54:08.860Z,95278.02
2019-01-25T14:56:38.015Z,95281.59
2019-01-25T14:59:07.668Z,95281.36
2019-01-25T15:01:36.728Z,95274.53
2019-01-25T15:04:07.113Z,95282.02
2019-01-25T15:06:36.152Z,95292.00
2019-01-25T15:09:05.685Z,95293.66
2019-01-25T15:11:35.309Z,95296.46
2019-01-25T15:14:04.387Z,95292.38
2019-01-25T15:16:33.924Z,95293.81
2019-01-25T15:19:03.798Z,95295.53
2019-01-25T15:21:33.835Z,95305.27
2019-01-25T15:24:13.584Z,95303.83
2019-01-25T15:26:42.630Z,95302.36
2019-01-25T15:29:12.604Z,95303.99
2019-01-25T15:31:42.208Z,95306.06
2019-01-25T15:34:11.267Z,95309.12
2019-01-25T15:36:40.543Z,95307.14
2019-01-25T15:39:11.572Z,95298.77
2019-01-25T15:41:40.648Z,95295.16
2019-01-25T15:44:10.870Z,95297.72
2019-01-25T15:46:39.956Z,95299.44
2019-01-25T15:49:09.539Z,95295.80
2019-01-25T15:51:39.046Z,95300.31
2019-01-25T15:54:10.046Z,95304.55
2019-01-25T15:56:39.478Z,95302.48
2019-01-25T16:01:45.787Z,95310.56
2019-01-25T16:04:15.866Z,95317.19
2019-01-25T16:06:55.557Z,95319.41
2019-01-25T16:09:39.029Z,95321.58
2019-01-25T16:14:57.404Z,95321.20
2019-01-25T16:17:38.335Z,95320.48
2019-01-25T16:20:14.928Z,95317.08
2019-01-25T16:22:43.990Z,95325.33
2019-01-25T16:25:14.737Z,95327.03
2019-01-25T16:27:44.082Z,95329.47
2019-01-25T16:30:18.063Z,95335.78
2019-01-25T16:32:47.144Z,95342.16
2019-01-25T16:35:16.211Z,95328.30
2019-01-25T16:37:45.656Z,95327.54
2019-01-25T16:40:15.830Z,95327.61
2019-01-25T16:42:45.086Z,95322.89
2019-01-25T16:47:57.944Z,95320.08
2019-01-25T16:50:29.193Z,95319.77
2019-01-25T16:52:58.320Z,95325.23
2019-01-25T16:55:28.289Z,95321.02
2019-01-25T16:58:25.931Z,95324.09
2019-01-25T17:01:07.471Z,95317.98
2019-01-25T17:03:48.969Z,95315.48
2019-01-25T17:06:27.887Z,95313.95
2019-01-25T17:11:45.892Z,95320.96
2019-01-25T17:14:33.178Z,95321.09
2019-01-25T17:17:20.890Z,95324.77
2019-01-25T17:19:50.045Z,95323.81
2019-01-25T17:22:19.691Z,95320.45
2019-01-25T17:24:49.680Z,95319.52
2019-01-25T17:27:24.186Z,95324.02
2019-01-25T17:29:53.445Z,95326.11
2019-01-25T17:33:18.938Z,95332.49
2019-01-25T17:35:50.682Z,95332.44
2019-01-25T17:38:19.774Z,95333.57
2019-01-25T17:40:50.046Z,95335.45
2019-01-25T17:46:02.745Z,95331.67
2019-01-25T17:48:50.584Z,95334.15
2019-01-25T17:51:21.621Z,95329.64
2019-01-25T17:53:52.460Z,95336.75
2019-01-25T17:56:25.002Z,95332.05
2019-01-25T17:58:54.165Z,95323.80
2019-01-25T18:01:29.587Z,95326.31
2019-01-25T18:03:58.635Z,95332.16
2019-01-25T18:06:27.744Z,95330.31
2019-01-25T18:08:57.317Z,95341.84
2019-01-25T18:14:07.673Z,95345.71
2019-01-25T18:16:41.724Z,95348.52
2019-01-25T18:21:49.871Z,95343.85
2019-01-25T18:26:57.117Z,95347.69
2019-01-25T18:29:30.910Z,95352.50
2019-01-25T18:31:59.975Z,95351.45
2019-01-25T18:34:29.811Z,95351.48
2019-01-25T18:36:58.903Z,95350.70
2019-01-25T18:39:33.952Z,95348.15
2019-01-25T18:42:02.979Z,95348.41
2019-01-25T18:44:32.982Z,95343.29
2019-01-25T18:47:02.471Z,95347.74
2019-01-25T18:49:33.522Z,95343.10
2019-01-25T18:52:03.090Z,95347.48
2019-01-25T18:57:07.539Z,95344.72
2019-01-25T18:59:36.977Z,95350.36
2019-01-25T19:02:06.324Z,95350.61
2019-01-25T19:07:12.320Z,95365.00
2019-01-25T19:09:54.409Z,95369.54
2019-01-25T19:12:40.111Z,95368.13
2019-01-25T19:15:24.632Z,95373.38
2019-01-25T19:17:54.127Z,95379.23
2019-01-25T19:20:40.423Z,95378.17
2019-01-25T19:23:10.567Z,95373.77
2019-01-25T19:25:40.065Z,95371.34
2019-01-25T19:28:09.750Z,95373.78
2019-01-25T19:30:44.770Z,95372.52
2019-01-25T19:35:51.100Z,95377.37
2019-01-25T19:38:24.712Z,95378.35
2019-01-25T19:40:53.944Z,95385.13
2019-01-25T19:43:40.539Z,95384.21
2019-01-25T19:51:29.991Z,95367.59
2019-01-25T19:53:59.083Z,95370.05
2019-01-25T19:56:30.061Z,95369.34
2019-01-25T19:59:00.127Z,95371.81
2019-01-25T20:02:42.685Z,95382.43
2019-01-25T20:05:15.582Z,95383.16
2019-01-25T20:07:45.580Z,95375.21
2019-01-25T20:10:15.116Z,95365.11
2019-01-25T20:12:44.186Z,95364.60
2019-01-25T20:15:19.342Z,95362.69
2019-01-25T20:17:44.086Z,95366.64
2019-01-25T20:20:14.107Z,95370.67
2019-01-25T20:22:45.144Z,95371.81
2019-01-25T20:25:15.363Z,95373.89
2019-01-25T20:30:30.790Z,95362.30
2019-01-25T20:33:07.093Z,95359.66
2019-01-25T20:35:40.669Z,95359.04
2019-01-25T20:38:12.695Z,95362.91
2019-01-25T20:40:42.009Z,95360.17
2019-01-25T20:43:11.147Z,95364.91
2019-01-25T20:45:40.574Z,95370.55
2019-01-25T20:50:52.047Z,95367.20
2019-01-25T20:53:21.407Z,95355.23
2019-01-25T20:55:58.404Z,95353.12
2019-01-25T20:58:30.930Z,95357.13
2019-01-25T21:01:00.112Z,95362.95
2019-01-25T21:03:30.381Z,95364.33
2019-01-25T21:05:59.496Z,95369.36
2019-01-25T21:08:28.550Z,95365.05
2019-01-25T21:10:58.100Z,95365.48
2019-01-25T21:13:36.751Z,95354.67
2019-01-25T21:16:38.203Z,95345.75
2019-01-25T21:19:25.411Z,95343.07
2019-01-25T21:24:46.221Z,95352.41
2019-01-25T21:30:22.291Z,95344.76
2019-01-25T21:35:42.981Z,95333.46
2019-01-25T21:38:21.450Z,95330.75
2019-01-25T21:41:02.580Z,95333.71
2019-01-25T21:46:18.649Z,95316.80
2019-01-25T21:49:17.649Z,95314.19
2019-01-25T21:52:16.037Z,95316.28
2019-01-25T21:54:53.026Z,95310.69
2019-01-25T22:00:08.228Z,95297.34
2019-01-25T22:02:43.953Z,95288.06
2019-01-25T22:05:32.169Z,95278.77
2019-01-25T22:08:22.019Z,95284.67
2019-01-25T22:13:52.923Z,95291.67
2019-01-25T22:16:32.302Z,95287.47
2019-01-25T22:19:11.206Z,95280.44
2019-01-25T22:21:44.647Z,95278.03
2019-01-25T22:27:02.026Z,95281.65
2019-01-25T22:29:37.801Z,95283.34
2019-01-25T22:32:11.014Z,95286.42
2019-01-25T22:34:46.586Z,95278.97
2019-01-25T22:37:32.193Z,95284.30
2019-01-25T22:40:05.823Z,95279.59
2019-01-25T22:42:38.869Z,95280.89
2019-01-25T22:45:14.403Z,95287.34
2019-01-25T22:47:48.092Z,95277.33
2019-01-25T22:50:25.626Z,95270.22
2019-01-25T22:53:00.337Z,95266.63
2019-01-25T22:55:39.175Z,95266.38
2019-01-25T22:58:13.043Z,95260.83
2019-01-25T23:03:55.457Z,95263.07
2019-01-25T23:06:43.157Z,95257.55
2019-01-25T23:09:19.292Z,95253.98
2019-01-25T23:11:52.809Z,95250.56
2019-01-25T23:14:27.439Z,95247.84
2019-01-25T23:17:01.091Z,95244.27
2019-01-25T23:22:12.045Z,95241.05
2019-01-25T23:24:44.075Z,95238.40
2019-01-25T23:27:17.842Z,95244.45
2019-01-25T23:29:51.716Z,95240.34
2019-01-25T23:35:03.877Z,95236.48
2019-01-25T23:37:44.507Z,95230.41
2019-01-25T23:40:17.905Z,95228.66
2019-01-25T23:42:52.645Z,95221.04
2019-01-25T23:45:25.410Z,95222.33
2019-01-25T23:48:04.573Z,95222.41
2019-01-25T23:50:40.226Z,95225.64
2019-01-25T23:53:13.099Z,95227.63
2019-01-25T23:55:47.193Z,95222.48
2019-01-25T23:58:21.818Z,95215.22
